TimeCST,TemperatureF,Dew PointF,Humidity,Sea Level PressureIn,VisibilityMPH,Wind Direction,Wind SpeedMPH,Gust SpeedMPH,PrecipitationIn,Events,Conditions,WindDirDegrees,DateUTC
12:15 AM,45.5,42.1,88,30.13,10.0,Calm,Calm,-,N/A,,Clear,0,2012-11-07 06:15:00
12:35 AM,46.4,41.4,83,30.14,10.0,Calm,Calm,-,N/A,,Clear,0,2012-11-07 06:35:00
12:55 AM,45.1,41.7,88,30.14,10.0,Calm,Calm,-,N/A,,Clear,0,2012-11-07 06:55:00
1:15 AM,45.7,40.8,83,30.14,10.0,Calm,Calm,-,N/A,,Clear,0,2012-11-07 07:15:00
1:35 AM,45.0,40.6,85,30.15,10.0,Calm,Calm,-,N/A,,Clear,0,2012-11-07 07:35:00
1:55 AM,45.5,40.6,83,30.15,10.0,Calm,Calm,-,N/A,,Clear,0,2012-11-07 07:55:00
2:15 AM,44.8,40.6,85,30.15,10.0,Calm,Calm,-,N/A,,Clear,0,2012-11-07 08:15:00
2:55 AM,43.9,40.6,88,30.15,10.0,Calm,Calm,-,N/A,,Clear,0,2012-11-07 08:55:00
3:15 AM,45.1,40.8,85,30.15,10.0,Calm,Calm,-,N/A,,Clear,0,2012-11-07 09:15:00
3:35 AM,43.9,39.4,84,30.15,10.0,Calm,Calm,-,N/A,,Clear,0,2012-11-07 09:35:00
3:55 AM,43.2,39.9,88,30.15,10.0,Calm,Calm,-,N/A,,Clear,0,2012-11-07 09:55:00
4:15 AM,44.8,40.5,85,30.15,10.0,Calm,Calm,-,N/A,,Clear,0,2012-11-07 10:15:00
4:35 AM,43.5,38.7,83,30.15,10.0,Calm,Calm,-,N/A,,Clear,0,2012-11-07 10:35:00
5:15 AM,44.4,39.7,84,30.15,10.0,NE,3.5,-,N/A,,Clear,50,2012-11-07 11:15:00
5:35 AM,51.8,38.3,60,30.15,10.0,Calm,Calm,-,N/A,,Clear,0,2012-11-07 11:35:00
5:55 AM,47.8,39.2,72,30.15,10.0,Calm,Calm,-,N/A,,Clear,0,2012-11-07 11:55:00
6:15 AM,43.2,38.8,85,30.16,10.0,Calm,Calm,-,N/A,,Clear,0,2012-11-07 12:15:00
6:35 AM,43.5,40.1,88,30.16,10.0,Calm,Calm,-,N/A,,Clear,0,2012-11-07 12:35:00
6:55 AM,42.4,39.6,90,30.17,10.0,Calm,Calm,-,N/A,,Clear,0,2012-11-07 12:55:00
7:15 AM,42.6,39.4,88,30.18,10.0,Calm,Calm,-,N/A,,Clear,0,2012-11-07 13:15:00
7:35 AM,44.6,40.8,87,30.18,10.0,Calm,Calm,-,N/A,,Clear,0,2012-11-07 13:35:00
7:55 AM,48.7,44.2,84,30.19,10.0,Calm,Calm,-,N/A,,Clear,0,2012-11-07 13:55:00
8:15 AM,51.8,44.4,76,30.19,10.0,Calm,Calm,-,N/A,,Clear,0,2012-11-07 14:15:00
8:35 AM,55.2,44.4,67,30.20,10.0,Calm,Calm,-,N/A,,Clear,0,2012-11-07 14:35:00
8:55 AM,59.5,45.0,59,30.20,10.0,Calm,Calm,-,N/A,,Clear,0,2012-11-07 14:55:00
9:15 AM,62.8,44.8,52,30.20,10.0,Calm,Calm,-,N/A,,Clear,0,2012-11-07 15:15:00
9:35 AM,65.5,40.1,39,30.20,10.0,Calm,Calm,-,N/A,,Clear,0,2012-11-07 15:35:00
9:55 AM,67.3,35.4,31,30.20,10.0,NE,5.8,-,N/A,,Clear,40,2012-11-07 15:55:00
10:15 AM,67.8,34.9,30,30.20,10.0,ENE,5.8,-,N/A,,Clear,60,2012-11-07 16:15:00
10:35 AM,69.4,32.0,25,30.20,10.0,ENE,6.9,-,N/A,,Clear,60,2012-11-07 16:35:00
10:55 AM,69.6,34.0,27,30.20,10.0,NE,4.6,-,N/A,,Clear,40,2012-11-07 16:55:00
11:15 AM,70.5,33.6,26,30.19,10.0,SSE,3.5,-,N/A,,Clear,150,2012-11-07 17:15:00
11:35 AM,70.3,33.4,26,30.19,10.0,NNE,3.5,-,N/A,,Clear,20,2012-11-07 17:35:00
11:55 AM,70.9,34.3,26,30.18,10.0,SSE,3.5,-,N/A,,Clear,160,2012-11-07 17:55:00
12:15 PM,71.8,35.1,26,30.16,10.0,WNW,4.6,-,N/A,,Clear,300,2012-11-07 18:15:00
12:35 PM,72.7,35.2,25,30.15,10.0,NW,3.5,-,N/A,,Clear,320,2012-11-07 18:35:00
12:55 PM,73.0,36.1,26,30.14,10.0,West,3.5,-,N/A,,Clear,260,2012-11-07 18:55:00
1:15 PM,72.9,35.8,26,30.13,10.0,Calm,Calm,-,N/A,,Clear,0,2012-11-07 19:15:00
1:35 PM,73.4,36.3,26,30.12,10.0,Calm,Calm,-,N/A,,Clear,0,2012-11-07 19:35:00
1:55 PM,74.7,37.2,26,30.11,10.0,North,3.5,-,N/A,,Clear,10,2012-11-07 19:55:00
2:15 PM,74.7,37.4,26,30.11,10.0,NW,6.9,-,N/A,,Clear,320,2012-11-07 20:15:00
2:35 PM,74.5,36.7,25,30.11,10.0,NNW,5.8,-,N/A,,Clear,330,2012-11-07 20:35:00
2:55 PM,74.7,37.0,26,30.11,10.0,NNW,5.8,-,N/A,,Clear,330,2012-11-07 20:55:00
3:15 PM,74.3,37.0,26,30.11,10.0,NW,3.5,-,N/A,,Clear,320,2012-11-07 21:15:00
3:35 PM,74.3,37.4,26,30.11,10.0,West,4.6,-,N/A,,Clear,280,2012-11-07 21:35:00
3:55 PM,73.9,37.2,26,30.11,10.0,NW,4.6,-,N/A,,Clear,320,2012-11-07 21:55:00
4:15 PM,73.6,37.2,27,30.11,10.0,NW,3.5,-,N/A,,Clear,310,2012-11-07 22:15:00
4:35 PM,73.0,37.6,28,30.11,10.0,NNW,3.5,-,N/A,,Clear,340,2012-11-07 22:35:00
4:55 PM,71.1,39.7,32,30.11,10.0,NNE,3.5,-,N/A,,Clear,20,2012-11-07 22:55:00
5:15 PM,68.7,38.8,34,30.11,10.0,NE,3.5,-,N/A,,Clear,50,2012-11-07 23:15:00
5:35 PM,66.9,39.2,36,30.11,10.0,ENE,3.5,-,N/A,,Clear,60,2012-11-07 23:35:00
5:55 PM,65.3,39.2,38,30.12,3.0,NE,4.6,-,N/A,,Haze,50,2012-11-07 23:55:00
6:15 PM,62.4,40.3,44,30.12,10.0,Calm,Calm,-,N/A,,Clear,0,2012-11-08 00:15:00
6:35 PM,63.0,38.8,41,30.12,4.0,NE,3.5,-,N/A,,Haze,50,2012-11-08 00:35:00
6:55 PM,63.0,38.5,40,30.12,10.0,ENE,3.5,-,N/A,,Clear,60,2012-11-08 00:55:00
7:15 PM,61.9,38.5,42,30.13,7.0,Calm,Calm,-,N/A,,Clear,0,2012-11-08 01:15:00
7:35 PM,59.4,39.6,48,30.13,10.0,Calm,Calm,-,N/A,,Clear,0,2012-11-08 01:35:00
7:55 PM,58.6,38.7,47,30.14,10.0,East,3.5,-,N/A,,Clear,80,2012-11-08 01:55:00
8:15 PM,59.4,39.2,47,30.14,10.0,Calm,Calm,-,N/A,,Clear,0,2012-11-08 02:15:00
8:35 PM,59.0,40.3,50,30.14,10.0,ESE,3.5,-,N/A,,Clear,110,2012-11-08 02:35:00
8:55 PM,59.5,40.1,49,30.15,10.0,East,3.5,-,N/A,,Clear,90,2012-11-08 02:55:00
9:15 PM,59.4,40.1,49,30.15,10.0,East,3.5,-,N/A,,Clear,80,2012-11-08 03:15:00
9:35 PM,60.1,38.3,44,30.15,10.0,ESE,3.5,-,N/A,,Clear,110,2012-11-08 03:35:00
9:55 PM,58.8,39.2,48,30.15,5.0,East,3.5,-,N/A,,Haze,100,2012-11-08 03:55:00
10:15 PM,59.2,38.3,46,30.15,3.0,East,3.5,-,N/A,,Haze,100,2012-11-08 04:15:00
10:35 PM,58.8,38.3,47,30.14,7.0,East,4.6,-,N/A,,Clear,100,2012-11-08 04:35:00
10:55 PM,58.1,37.9,47,30.14,10.0,ESE,3.5,-,N/A,,Clear,120,2012-11-08 04:55:00
11:15 PM,57.4,38.5,49,30.14,10.0,ESE,4.6,-,N/A,,Clear,110,2012-11-08 05:15:00
11:35 PM,57.2,38.7,50,30.14,10.0,ESE,4.6,-,N/A,,Clear,110,2012-11-08 05:35:00
11:55 PM,57.0,38.3,50,30.14,10.0,ESE,3.5,-,N/A,,Clear,110,2012-11-08 05:55:00